createdAt,value
2018-11-22T12:17:57.824Z,3.90
2018-11-22T12:20:25.993Z,4.10
2018-11-22T12:22:55.988Z,4.20
2018-11-22T12:25:25.367Z,4.20
2018-11-22T12:27:55.948Z,4.20
2018-11-22T12:30:25.431Z,4.20
2018-11-22T12:33:01.156Z,4.20
2018-11-22T12:35:34.821Z,4.10
2018-11-22T12:38:08.464Z,4.10
2018-11-22T12:40:37.506Z,4.00
2018-11-22T12:43:04.688Z,3.90
2018-11-22T12:45:33.100Z,3.80
2018-11-22T12:48:01.207Z,3.70
2018-11-22T12:50:29.308Z,3.70
2018-11-22T12:52:57.458Z,3.80
2018-11-22T12:55:25.725Z,3.80
2018-11-22T12:57:53.805Z,3.80
2018-11-22T13:00:21.959Z,3.90
2018-11-22T13:02:50.090Z,4.00
2018-11-22T13:05:19.109Z,4.20
2018-11-22T13:07:47.192Z,4.20
2018-11-22T13:10:16.494Z,4.20
2018-11-22T13:12:45.776Z,4.10
2018-11-22T13:15:15.084Z,4.00
2018-11-22T13:17:43.334Z,4.10
2018-11-22T13:20:15.773Z,4.00
2018-11-22T13:22:48.730Z,3.90
2018-11-22T13:25:18.735Z,4.00
2018-11-22T13:27:46.831Z,4.00
2018-11-22T13:30:17.243Z,3.80
2018-11-22T13:32:46.175Z,3.90
2018-11-22T13:35:15.193Z,3.80
2018-11-22T13:37:44.536Z,3.90
2018-11-22T13:40:13.005Z,3.80
2018-11-22T13:42:42.098Z,3.70
2018-11-22T13:45:12.150Z,3.70
2018-11-22T13:47:41.517Z,3.70
2018-11-22T13:50:13.201Z,3.70
2018-11-22T13:52:41.655Z,3.70
2018-11-22T13:55:09.849Z,3.80
2018-11-22T13:57:38.761Z,3.70
2018-11-22T14:00:14.282Z,3.60
2018-11-22T14:02:42.576Z,3.70
2018-11-22T14:05:11.589Z,3.60
2018-11-22T14:07:38.968Z,3.60
2018-11-22T14:10:11.683Z,3.60
2018-11-22T14:12:40.167Z,3.60
2018-11-22T14:15:12.231Z,3.60
2018-11-22T14:17:40.688Z,3.60
2018-11-22T14:20:10.724Z,3.70
2018-11-22T14:22:38.927Z,3.70
2018-11-22T14:25:07.902Z,3.70
2018-11-22T14:27:36.271Z,3.50
2018-11-22T14:30:05.414Z,3.50
2018-11-22T14:32:33.621Z,3.50
2018-11-22T14:35:02.370Z,3.50
2018-11-22T14:37:30.752Z,3.50
2018-11-22T14:39:58.924Z,3.50
2018-11-22T14:42:27.091Z,3.50
2018-11-22T14:44:55.252Z,3.50
2018-11-22T14:47:23.339Z,3.50
2018-11-22T14:49:51.516Z,3.50
2018-11-22T14:52:19.681Z,3.50
2018-11-22T14:54:47.863Z,3.50
2018-11-22T14:57:16.011Z,3.60
2018-11-22T14:59:44.159Z,3.50
2018-11-22T15:02:12.320Z,3.50
2018-11-22T15:04:40.717Z,3.50
2018-11-22T15:07:08.821Z,3.50
2018-11-22T15:09:37.156Z,3.50
2018-11-22T15:12:05.454Z,3.60
2018-11-22T15:14:33.545Z,3.60
2018-11-22T15:17:02.295Z,3.60
2018-11-22T15:19:30.509Z,3.60
2018-11-22T15:21:58.576Z,3.50
2018-11-22T15:24:26.837Z,3.50
2018-11-22T15:26:54.992Z,3.40
2018-11-22T15:29:23.121Z,3.40
2018-11-22T15:31:51.290Z,3.40
2018-11-22T15:34:19.352Z,3.40
2018-11-22T15:36:47.520Z,3.30
2018-11-22T15:39:15.653Z,3.30
2018-11-22T15:41:43.856Z,3.20
2018-11-22T15:44:12.093Z,3.30
2018-11-22T15:46:40.252Z,3.20
2018-11-22T15:49:08.521Z,3.20
2018-11-22T15:51:36.800Z,3.20
2018-11-22T15:54:05.490Z,3.10
2018-11-22T15:56:33.776Z,3.10
2018-11-22T15:59:01.917Z,3.20
2018-11-22T16:01:30.021Z,3.20
2018-11-22T16:03:58.146Z,3.10
2018-11-22T16:06:26.273Z,3.10
2018-11-22T16:08:54.486Z,3.20
2018-11-22T16:11:22.663Z,3.20
2018-11-22T16:13:50.813Z,3.20
2018-11-22T16:16:20.714Z,3.20
2018-11-22T16:18:48.961Z,3.20
2018-11-22T16:21:17.153Z,3.20
2018-11-22T16:23:45.480Z,3.20
2018-11-22T16:26:13.860Z,3.10
2018-11-22T16:28:41.927Z,3.10
2018-11-22T16:31:10.002Z,3.20
2018-11-22T16:33:38.339Z,3.10
2018-11-22T16:36:06.848Z,3.10
2018-11-22T16:38:34.945Z,3.10
2018-11-22T16:41:03.060Z,3.10
2018-11-22T16:43:31.224Z,3.10
2018-11-22T16:45:59.364Z,3.10
2018-11-22T16:48:27.543Z,3.10
2018-11-22T16:50:55.686Z,3.10
2018-11-22T16:53:24.668Z,3.10
2018-11-22T16:55:53.072Z,3.10
2018-11-22T16:58:21.331Z,3.10
2018-11-22T17:00:49.469Z,3.10
2018-11-22T17:03:17.619Z,3.10
2018-11-22T17:05:46.788Z,3.20
2018-11-22T17:08:14.933Z,3.20
2018-11-22T17:10:43.272Z,3.10
2018-11-22T17:13:11.364Z,3.10
2018-11-22T17:15:40.637Z,3.10
2018-11-22T17:18:09.428Z,3.10
2018-11-22T17:20:37.523Z,3.10
2018-11-22T17:23:06.228Z,3.10
2018-11-22T17:25:35.264Z,3.10
2018-11-22T17:28:04.686Z,3.10
2018-11-22T17:30:35.531Z,3.10
2018-11-22T17:33:03.771Z,3.10
2018-11-22T17:35:32.401Z,3.10
2018-11-22T17:38:01.795Z,3.10
2018-11-22T17:40:32.232Z,3.10
2018-11-22T17:43:00.398Z,3.10
2018-11-22T17:45:32.198Z,3.10
2018-11-22T17:48:00.357Z,3.10
2018-11-22T17:50:30.230Z,3.10
2018-11-22T17:52:58.524Z,3.10
2018-11-22T17:55:27.903Z,3.10
2018-11-22T17:57:56.080Z,3.00
2018-11-22T18:00:26.404Z,3.00
2018-11-22T18:02:55.708Z,3.10
2018-11-22T18:05:27.388Z,3.20
2018-11-22T18:07:52.143Z,3.20
2018-11-22T18:10:21.896Z,3.10
2018-11-22T18:12:51.268Z,3.10
2018-11-22T18:15:20.344Z,3.00
2018-11-22T18:17:48.973Z,3.00
2018-11-22T18:20:19.323Z,3.00
2018-11-22T18:22:48.279Z,3.00
2018-11-22T18:25:18.707Z,3.00
2018-11-22T18:27:47.032Z,3.00
2018-11-22T18:30:20.320Z,3.10
2018-11-22T18:32:49.986Z,3.10
2018-11-22T18:35:18.095Z,3.10
2018-11-22T18:37:46.466Z,3.10
2018-11-22T18:40:19.368Z,3.10
2018-11-22T18:42:48.319Z,3.00
2018-11-22T18:45:20.661Z,3.10
2018-11-22T18:47:48.768Z,3.40
2018-11-22T18:50:18.676Z,3.70
2018-11-22T18:52:47.149Z,3.80
2018-11-22T18:55:15.381Z,4.00
2018-11-22T18:57:43.921Z,3.90
2018-11-22T19:00:14.925Z,3.60
2018-11-22T19:02:43.125Z,3.30
2018-11-22T19:05:12.433Z,3.30
2018-11-22T19:07:41.530Z,3.20
2018-11-22T19:10:13.413Z,3.20
2018-11-22T19:12:41.877Z,3.10
2018-11-22T19:15:11.977Z,3.20
2018-11-22T19:17:40.828Z,3.20
2018-11-22T19:20:11.740Z,3.10
2018-11-22T19:22:39.893Z,3.00
2018-11-22T19:25:08.573Z,3.10
2018-11-22T19:27:36.679Z,3.10
2018-11-22T19:30:08.469Z,3.00
2018-11-22T19:32:36.717Z,3.00
2018-11-22T19:35:05.750Z,3.00
2018-11-22T19:37:33.933Z,3.00
2018-11-22T19:40:02.025Z,3.10
2018-11-22T19:42:30.116Z,3.00
2018-11-22T19:44:58.238Z,3.10
2018-11-22T19:47:26.424Z,3.00
2018-11-22T19:49:54.562Z,3.10
2018-11-22T19:52:22.747Z,3.00
2018-11-22T19:54:50.881Z,3.00
2018-11-22T19:57:19.080Z,3.00
2018-11-22T19:59:47.232Z,3.00
2018-11-22T20:02:15.410Z,3.00
2018-11-22T20:04:43.660Z,2.90
2018-11-22T20:07:11.712Z,2.90
2018-11-22T20:09:39.839Z,2.90
2018-11-22T20:12:08.009Z,2.90
2018-11-22T20:14:36.284Z,2.90
2018-11-22T20:17:04.681Z,3.00
2018-11-22T20:19:32.904Z,3.00
2018-11-22T20:22:01.170Z,3.00
2018-11-22T20:24:29.423Z,2.90
2018-11-22T20:26:57.618Z,2.90
2018-11-22T20:29:25.756Z,2.90
2018-11-22T20:31:53.998Z,2.90
2018-11-22T20:34:34.449Z,2.90
2018-11-22T20:37:05.647Z,2.90
2018-11-22T20:39:39.369Z,2.90
2018-11-22T20:42:40.654Z,2.90
2018-11-22T20:45:11.486Z,2.90
2018-11-22T20:47:46.710Z,2.90
2018-11-22T20:53:17.654Z,3.00
2018-11-22T20:55:45.823Z,3.00
2018-11-22T20:58:13.911Z,3.00
2018-11-22T21:00:42.501Z,3.00
2018-11-22T21:03:10.628Z,3.00
2018-11-22T21:05:38.982Z,3.00
2018-11-22T21:08:14.672Z,3.00
2018-11-22T21:10:46.825Z,3.00
2018-11-22T21:13:20.446Z,3.00
2018-11-22T21:15:55.804Z,3.00
2018-11-22T21:18:34.204Z,3.00
2018-11-22T21:21:10.469Z,3.00
2018-11-22T21:23:40.595Z,3.00
2018-11-22T21:26:14.498Z,3.00
2018-11-22T21:28:48.801Z,3.00
2018-11-22T21:31:17.910Z,3.00
2018-11-22T21:33:53.946Z,3.00
2018-11-22T21:36:27.879Z,3.00
2018-11-22T21:39:00.863Z,3.10
2018-11-22T21:41:34.159Z,3.10
2018-11-22T21:44:05.406Z,3.10
2018-11-22T21:46:38.901Z,3.10
2018-11-22T21:49:11.351Z,3.10
2018-11-22T21:51:43.104Z,3.10
2018-11-22T21:54:15.489Z,3.10
2018-11-22T21:56:49.220Z,3.10
2018-11-22T21:59:23.360Z,3.10
2018-11-22T22:01:56.301Z,3.20
2018-11-22T22:04:27.490Z,3.20
2018-11-22T22:06:59.302Z,3.10
2018-11-22T22:09:28.702Z,3.20
2018-11-22T22:11:58.926Z,3.10
2018-11-22T22:14:32.218Z,3.10
2018-11-22T22:17:04.219Z,3.10
2018-11-22T22:19:34.320Z,3.10
2018-11-22T22:22:06.488Z,3.10
2018-11-22T22:24:37.707Z,3.10
2018-11-22T22:27:09.697Z,3.10
2018-11-22T22:29:42.787Z,3.20
2018-11-22T22:32:14.687Z,3.20
2018-11-22T22:34:51.705Z,3.10
2018-11-22T22:37:24.616Z,3.10
2018-11-22T22:39:59.691Z,3.20
2018-11-22T22:42:30.796Z,3.20
2018-11-22T22:45:02.148Z,3.20
2018-11-22T22:47:36.879Z,3.30
2018-11-22T22:50:15.038Z,3.20
2018-11-22T22:52:47.241Z,3.40
2018-11-22T22:55:17.566Z,3.30
2018-11-22T22:57:49.527Z,3.30
2018-11-22T23:00:28.654Z,3.30
2018-11-22T23:03:03.984Z,3.40
2018-11-22T23:05:35.341Z,3.40
2018-11-22T23:08:08.822Z,3.40
2018-11-22T23:10:40.084Z,3.40
2018-11-22T23:13:12.558Z,3.40
2018-11-22T23:15:44.030Z,3.30
2018-11-22T23:18:14.872Z,3.30
2018-11-22T23:20:47.862Z,3.40
2018-11-22T23:23:18.253Z,3.40
2018-11-22T23:25:48.708Z,3.30
2018-11-22T23:28:19.339Z,3.40
2018-11-22T23:30:50.245Z,3.30
2018-11-22T23:33:19.648Z,3.20
2018-11-22T23:35:49.393Z,3.20
2018-11-22T23:38:19.822Z,3.20
2018-11-22T23:40:49.286Z,3.20
2018-11-22T23:43:20.060Z,3.20
2018-11-22T23:45:50.648Z,3.20
2018-11-22T23:48:20.607Z,3.10
2018-11-22T23:50:53.655Z,3.10
2018-11-22T23:53:24.179Z,3.20
2018-11-22T23:55:55.422Z,3.20
2018-11-22T23:58:26.468Z,3.20
